| time (UTC) | temp F | wind direction | speed MPH | gust MPH | rain 1hr in | rain 24hr in | rain mn in | humidity % | barometer mb |
| 20260831092344 | 73 | 108 | 0.0 | 0.0 | 0.00 | 0.00 | 0.00 | 86 | 1018.3 |
| 20260831091340 | 73 | 108 | 0.0 | 0.0 | 0.00 | 0.00 | 0.00 | 86 | 1018.5 |
| 20260831090348 | 74 | 108 | 0.0 | 0.0 | 0.00 | 0.00 | 0.00 | 86 | 1018.4 |
| 20260831085344 | 74 | 108 | 0.0 | 0.0 | 0.00 | 0.00 | 0.00 | 86 | 1018.2 |
| 20260831084356 | 74 | 108 | 0.0 | 0.0 | 0.00 | 0.00 | 0.00 | 85 | 1018.1 |
| 20260831083345 | 74 | 108 | 0.0 | 0.0 | 0.00 | 0.00 | 0.00 | 85 | 1017.9 |
| 20260831082340 | 74 | 127 | 0.0 | 2.0 | 0.00 | 0.00 | 0.00 | 86 | 1017.8 |
| 20260831081332 | 74 | 169 | 1.0 | 4.0 | 0.00 | 0.00 | 0.00 | 85 | 1017.6 |
| 20260831080334 | 74 | 176 | 1.0 | 4.0 | 0.00 | 0.00 | 0.00 | 85 | 1017.4 |
| 20260831074219 | 74 | 166 | 1.0 | 3.0 | 0.00 | 0.00 | 0.00 | 84 | 1017.4 |
| 20260831073238 | 74 | 248 | 0.0 | 2.0 | 0.00 | 0.00 | 0.00 | 84 | 1017.6 |
| 20260831072227 | 75 | 202 | 0.0 | 0.0 | 0.00 | 0.00 | 0.00 | 82 | 1017.8 |
| 20260831071215 | 75 | 152 | 1.0 | 3.0 | 0.00 | 0.00 | 0.00 | 82 | 1017.9 |
| 20260831070204 | 75 | 231 | 0.0 | 2.0 | 0.00 | 0.00 | 0.00 | 81 | 1017.9 |
| 20260831065200 | 76 | 21 | 0.0 | 2.0 | 0.00 | 0.00 | 0.00 | 81 | 1018.0 |
| 20260831064203 | 75 | 122 | 0.0 | 2.0 | 0.00 | 0.00 | 0.00 | 81 | 1018.1 |
| 20260831063221 | 75 | 133 | 0.0 | 1.0 | 0.00 | 0.00 | 0.00 | 80 | 1018.2 |
| 20260831062244 | 75 | 245 | 0.0 | 1.0 | 0.00 | 0.00 | 0.00 | 81 | 1018.4 |
| 20260831061218 | 75 | 58 | 0.0 | 0.0 | 0.00 | 0.00 | 0.00 | 82 | 1018.5 |
| 20260831054001 | 75 | 163 | 0.0 | 0.0 | 0.00 | 0.00 | 0.00 | 84 | 1018.6 |
| 20260831052951 | 75 | 210 | 0.0 | 0.0 | 0.00 | 0.00 | 0.00 | 84 | 1018.8 |
| 20260831052003 | 74 | 210 | 0.0 | 0.0 | 0.00 | 0.00 | 0.00 | 84 | 1018.7 |
| 20260831050942 | 75 | 210 | 0.0 | 0.0 | 0.00 | 0.00 | 0.00 | 84 | 1018.7 |
| 20260831045926 | 75 | 210 | 0.0 | 0.0 | 0.00 | 0.00 | 0.00 | 83 | 1018.5 |
| 20260831043744 | 75 | 206 | 0.0 | 0.0 | 0.00 | 0.00 | 0.00 | 83 | 1018.3 |
| 20260831041656 | 76 | 206 | 0.0 | 0.0 | 0.00 | 0.00 | 0.00 | 79 | 1018.1 |
| 20260831040652 | 77 | 148 | 0.0 | 0.0 | 0.00 | 0.00 | 0.00 | 77 | 1018.1 |
| 20260831035638 | 77 | 148 | 0.0 | 0.0 | 0.00 | 0.00 | 0.00 | 78 | 1018.1 |
| 20260831033439 | 76 | 226 | 0.0 | 0.0 | 0.00 | 0.00 | 0.00 | 81 | 1018.2 |
| 20260831032425 | 76 | 226 | 0.0 | 0.0 | 0.00 | 0.00 | 0.00 | 81 | 1018.2 |
| 20260831031355 | 77 | 226 | 0.0 | 0.0 | 0.00 | 0.00 | 0.00 | 77 | 1018.2 |
| 20260831030334 | 78 | 226 | 0.0 | 0.0 | 0.00 | 0.00 | 0.00 | 76 | 1018.2 |
| 20260831025346 | 78 | 226 | 0.0 | 0.0 | 0.00 | 0.00 | 0.00 | 77 | 1018.2 |
| 20260831024358 | 78 | 226 | 0.0 | 0.0 | 0.00 | 0.00 | 0.00 | 75 | 1018.2 |
| 20260831023410 | 79 | 226 | 0.0 | 0.0 | 0.00 | 0.00 | 0.00 | 74 | 1018.2 |
| 20260831021243 | 80 | 148 | 0.0 | 0.0 | 0.00 | 0.00 | 0.00 | 71 | 1018.1 |
| 20260831020244 | 80 | 148 | 0.0 | 0.0 | 0.00 | 0.00 | 0.00 | 73 | 1018.0 |
| 20260831015250 | 81 | 148 | 0.0 | 0.0 | 0.00 | 0.00 | 0.00 | 70 | 1017.9 |
| 20260831014238 | 81 | 148 | 0.0 | 0.0 | 0.00 | 0.00 | 0.00 | 70 | 1017.9 |
| 20260831013255 | 81 | 148 | 0.0 | 0.0 | 0.00 | 0.00 | 0.00 | 67 | 1017.8 |
| 20260831012243 | 82 | 213 | 0.0 | 0.0 | 0.00 | 0.00 | 0.00 | 67 | 1017.8 |
| 20260831004949 | 83 | 106 | 0.0 | 1.0 | 0.00 | 0.00 | 0.00 | 65 | 1017.8 |
| 20260831003957 | 83 | 303 | 0.0 | 0.0 | 0.00 | 0.00 | 0.00 | 64 | 1017.6 |
| 20260831002932 | 84 | 304 | 0.0 | 0.0 | 0.00 | 0.00 | 0.00 | 61 | 1017.7 |
| 20260831000756 | 86 | 306 | 0.0 | 1.0 | 0.00 | 0.00 | 0.00 | 59 | 1017.6 |
| 20260830235737 | 86 | 316 | 0.0 | 1.0 | 0.00 | 0.00 | 0.00 | 58 | 1017.5 |
| 20260830234712 | 87 | 251 | 0.0 | 1.0 | 0.00 | 0.00 | 0.00 | 56 | 1017.5 |
| 20260830233651 | 87 | 233 | 1.0 | 3.0 | 0.00 | 0.00 | 0.00 | 55 | 1017.4 |
| 20260830232709 | 87 | 237 | 1.0 | 3.0 | 0.00 | 0.00 | 0.00 | 55 | 1017.3 |
| 20260830230541 | 87 | 249 | 2.0 | 8.0 | 0.00 | 0.00 | 0.00 | 54 | 1017.4 |
| 20260830225515 | 87 | 248 | 3.0 | 10.0 | 0.00 | 0.00 | 0.00 | 53 | 1017.4 |
| 20260830224443 | 88 | 250 | 6.0 | 11.0 | 0.00 | 0.00 | 0.00 | 50 | 1017.3 |
| 20260830223506 | 90 | 259 | 4.0 | 11.0 | 0.00 | 0.00 | 0.00 | 48 | 1017.4 |
| 20260830220130 | 90 | 258 | 5.0 | 9.0 | 0.00 | 0.00 | 0.00 | 50 | 1017.5 |
| 20260830214022 | 90 | 252 | 4.0 | 13.0 | 0.00 | 0.00 | 0.00 | 48 | 1017.6 |
| 20260830212959 | 90 | 238 | 6.0 | 13.0 | 0.00 | 0.00 | 0.00 | 47 | 1017.7 |
| 20260830211945 | 91 | 236 | 4.0 | 11.0 | 0.00 | 0.00 | 0.00 | 47 | 1017.7 |
| 20260830210937 | 91 | 239 | 6.0 | 11.0 | 0.00 | 0.00 | 0.00 | 46 | 1017.7 |
| 20260830205918 | 90 | 235 | 5.0 | 11.0 | 0.00 | 0.00 | 0.00 | 48 | 1017.6 |
| 20260830204910 | 90 | 207 | 6.0 | 11.0 | 0.00 | 0.00 | 0.00 | 47 | 1017.9 |
| 20260830202759 | 90 | 219 | 5.0 | 11.0 | 0.00 | 0.00 | 0.00 | 48 | 1018.2 |
| 20260830201821 | 91 | 238 | 4.0 | 9.0 | 0.00 | 0.00 | 0.00 | 48 | 1018.4 |
| 20260830195640 | 91 | 208 | 4.0 | 11.0 | 0.00 | 0.00 | 0.00 | 47 | 1018.8 |
| 20260830194634 | 93 | 245 | 1.0 | 7.0 | 0.00 | 0.00 | 0.00 | 45 | 1018.8 |
| 20260830193631 | 91 | 280 | 3.0 | 11.0 | 0.00 | 0.00 | 0.00 | 50 | 1018.9 |
| 20260830192626 | 91 | 231 | 3.0 | 9.0 | 0.00 | 0.00 | 0.00 | 48 | 1019.0 |
| 20260830191620 | 91 | 199 | 2.0 | 8.0 | 0.00 | 0.00 | 0.00 | 47 | 1019.1 |
| 20260830190642 | 91 | 168 | 2.0 | 7.0 | 0.00 | 0.00 | 0.00 | 48 | 1019.3 |
| 20260830184441 | 90 | 236 | 2.0 | 6.0 | 0.00 | 0.00 | 0.00 | 51 | 1019.6 |
| 20260830183505 | 89 | 229 | 3.0 | 6.0 | 0.00 | 0.00 | 0.00 | 54 | 1019.7 |
| 20260830182524 | 91 | 175 | 2.0 | 6.0 | 0.00 | 0.00 | 0.00 | 50 | 1019.7 |
| 20260830181548 | 93 | 359 | 0.0 | 3.0 | 0.00 | 0.00 | 0.00 | 50 | 1019.8 |
| 20260830180538 | 91 | 271 | 0.0 | 3.0 | 0.00 | 0.00 | 0.00 | 53 | 1019.9 |
| 20260830175509 | 90 | 284 | 3.0 | 10.0 | 0.00 | 0.00 | 0.00 | 54 | 1020.1 |
| 20260830174528 | 89 | 117 | 3.0 | 10.0 | 0.00 | 0.00 | 0.00 | 54 | 1020.2 |
| 20260830173528 | 90 | 129 | 1.0 | 0.0 | 0.00 | 0.00 | 0.00 | 54 | 1020.3 |
| 20260830172533 | 89 | 251 | 3.0 | 10.0 | 0.00 | 0.00 | 0.00 | 54 | 1020.6 |
| 20260830171513 | 89 | 247 | 1.0 | 8.0 | 0.00 | 0.00 | 0.00 | 54 | 1020.7 |
| 20260830170446 | 88 | 250 | 3.0 | 8.0 | 0.00 | 0.00 | 0.00 | 57 | 1020.9 |
| 20260830165507 | 88 | 217 | 2.0 | 7.0 | 0.00 | 0.00 | 0.00 | 57 | 1020.9 |
| 20260830163304 | 87 | 249 | 3.0 | 8.0 | 0.00 | 0.00 | 0.00 | 59 | 1020.9 |
| 20260830162233 | 87 | 229 | 2.0 | 5.0 | 0.00 | 0.00 | 0.00 | 59 | 1020.9 |
| 20260830161224 | 87 | 231 | 0.0 | 5.0 | 0.00 | 0.00 | 0.00 | 60 | 1020.9 |
| 20260830160203 | 86 | 244 | 0.0 | 0.0 | 0.00 | 0.00 | 0.00 | 61 | 1020.9 |
| 20260830155143 | 85 | 146 | 1.0 | 6.0 | 0.00 | 0.00 | 0.00 | 63 | 1020.7 |
| 20260830154122 | 84 | 236 | 2.0 | 6.0 | 0.00 | 0.00 | 0.00 | 64 | 1020.6 |
| 20260830153059 | 83 | 287 | 2.0 | 6.0 | 0.00 | 0.00 | 0.00 | 66 | 1020.5 |
| 20260830152122 | 82 | 170 | 1.0 | 6.0 | 0.00 | 0.00 | 0.00 | 66 | 1020.5 |
| 20260830151053 | 82 | 139 | 2.0 | 5.0 | 0.00 | 0.00 | 0.00 | 68 | 1020.4 |
| 20260830150116 | 81 | 205 | 2.0 | 6.0 | 0.00 | 0.00 | 0.00 | 69 | 1020.4 |
| 20260830145129 | 80 | 96 | 2.0 | 6.0 | 0.00 | 0.00 | 0.00 | 71 | 1020.4 |
| 20260830144146 | 80 | 148 | 1.0 | 6.0 | 0.00 | 0.00 | 0.00 | 72 | 1020.2 |
| 20260830143128 | 79 | 229 | 2.0 | 6.0 | 0.00 | 0.00 | 0.00 | 71 | 1020.1 |
| 20260830141038 | 78 | 33 | 0.0 | 3.0 | 0.00 | 0.00 | 0.00 | 73 | 1020.0 |
| 20260830134846 | 76 | 193 | 0.0 | 1.0 | 0.00 | 0.00 | 0.00 | 76 | 1020.1 |
| 20260830133849 | 75 | 229 | 1.0 | 3.0 | 0.00 | 0.00 | 0.00 | 77 | 1019.8 |
| 20260830132913 | 74 | 153 | 1.0 | 4.0 | 0.00 | 0.00 | 0.00 | 79 | 1019.8 |
| 20260830131936 | 73 | 117 | 2.0 | 4.0 | 0.00 | 0.00 | 0.00 | 79 | 1019.9 |
| 20260830131001 | 73 | 124 | 1.0 | 4.0 | 0.00 | 0.00 | 0.00 | 79 | 1020.0 |
| 20260830125950 | 73 | 172 | 1.0 | 3.0 | 0.00 | 0.00 | 0.00 | 81 | 1019.8 |
| 20260830124932 | 72 | 141 | 1.0 | 3.0 | 0.00 | 0.00 | 0.00 | 82 | 1019.9 |
| 20260830123914 | 72 | 159 | 0.0 | 2.0 | 0.00 | 0.00 | 0.00 | 83 | 1019.9 |
| 20260830121802 | 67 | 281 | 0.0 | 0.0 | 0.00 | 0.00 | 0.00 | 92 | 1019.8 |
| 20260830120731 | 66 | 281 | 0.0 | 0.0 | 0.00 | 0.00 | 0.00 | 93 | 1019.9 |
| 20260830114534 | 65 | 281 | 0.0 | 0.0 | 0.00 | 0.00 | 0.00 | 93 | 1019.7 |
| 20260830113542 | 65 | 281 | 0.0 | 0.0 | 0.00 | 0.00 | 0.00 | 93 | 1019.7 |
| 20260830112545 | 65 | 281 | 0.0 | 0.0 | 0.00 | 0.00 | 0.00 | 94 | 1019.4 |
| 20260830111524 | 64 | 281 | 0.0 | 0.0 | 0.00 | 0.00 | 0.00 | 95 | 1019.2 |
| 20260830110533 | 64 | 284 | 0.0 | 0.0 | 0.00 | 0.00 | 0.00 | 94 | 1019.1 |
| 20260830105518 | 64 | 284 | 0.0 | 0.0 | 0.00 | 0.00 | 0.00 | 94 | 1019.1 |
| 20260830104533 | 64 | 284 | 0.0 | 0.0 | 0.00 | 0.00 | 0.00 | 93 | 1019.1 |
| 20260830103526 | 64 | 284 | 0.0 | 0.0 | 0.00 | 0.00 | 0.00 | 93 | 1019.1 |
| 20260830102537 | 65 | 284 | 0.0 | 0.0 | 0.00 | 0.00 | 0.00 | 93 | 1019.1 |
| 20260830101551 | 65 | 286 | 0.0 | 0.0 | 0.00 | 0.00 | 0.00 | 94 | 1019.2 |
| 20260830100522 | 64 | 4 | 0.0 | 0.0 | 0.00 | 0.00 | 0.00 | 94 | 1019.3 |
| 20260830095526 | 65 | 4 | 0.0 | 0.0 | 0.00 | 0.00 | 0.00 | 94 | 1019.2 |
| 20260830094536 | 64 | 4 | 0.0 | 0.0 | 0.00 | 0.00 | 0.00 | 93 | 1019.2 |
| 20260830093510 | 64 | 4 | 0.0 | 0.0 | 0.00 | 0.00 | 0.00 | 93 | 1019.3 |